Time;durP1;ratioP1;P1;durP2;ratioP2;P2;SDS_P1;SDS_P2;PMS_P1;PMS_P2;Temp;Humidity;BMP_temperature;BMP_pressure;BME280_temperature;BME280_humidity;BME280_pressure;Samples;Min_cycle;Max_cycle;Signal;HPM_P1;HPM_P2
2022/02/05 00:00:30;;;;;;;11.77;2.50;;;;;;;;;;4391946;32;20027;-70
2022/02/05 00:03:07;;;;;;;14.30;2.20;;;;;;;;;;4393629;32;20052;-71
2022/02/05 00:10:59;;;;;;;17.30;3.30;;;;;;;;;;4392876;32;20022;-71
2022/02/05 00:43:06;;;;;;;13.73;3.00;;;;;;;;;;4406475;32;20605;-72
2022/02/05 00:45:35;;;;;;;;;;;;;;;;;;4406907;32;20022;-71
2022/02/05 00:48:02;;;;;;;17.40;2.78;;;;;;;;;;4407089;32;19951;-71
2022/02/05 00:50:29;;;;;;;9.45;2.53;;;;;;;;;;4407661;32;20027;-71
2022/02/05 00:53:06;;;;;;;12.45;2.80;;;;;;;;;;4407968;32;20018;-71
2022/02/05 00:55:35;;;;;;;12.27;2.60;;;;;;;;;;4407326;32;20088;-70
2022/02/05 00:58:05;;;;;;;11.63;2.37;;;;;;;;;;4407111;32;20022;-70
2022/02/05 01:00:31;;;;;;;13.27;3.50;;;;;;;;;;4406624;32;20411;-69
2022/02/05 01:02:56;;;;;;;;;;;;;;;;;;4405366;32;20019;-70
2022/02/05 01:05:21;;;;;;;10.85;2.45;;;;;;;;;;4406155;32;20303;-70
2022/02/05 01:07:47;;;;;;;;;;;;;;;;;;4406920;32;20026;-70
2022/02/05 01:10:13;;;;;;;17.17;4.25;;;;;;;;;;4406554;32;19938;-70
2022/02/05 01:12:42;;;;;;;;;;;;;;;;;;4405186;32;20539;-70
2022/02/05 01:15:07;;;;;;;16.33;2.85;;;;;;;;;;4405064;32;19929;-69
2022/02/05 01:17:39;;;;;;;;;;;;;;;;;;4406712;32;20022;-70
2022/02/05 01:22:40;;;;;;;15.65;3.25;;;;;;;;;;4403165;32;20072;-69
2022/02/05 01:25:05;;;;;;;14.50;2.80;;;;;;;;;;4392302;32;20022;-69
2022/02/05 01:27:44;;;;;;;;;;;;;;;;;;4392521;32;20026;-71
2022/02/05 01:32:42;;;;;;;17.30;3.22;;;;;;;;;;4392232;32;20026;-70
2022/02/05 01:35:15;;;;;;;13.70;3.00;;;;;;;;;;4390946;32;20088;-70
2022/02/05 01:54:12;;;;;;;;;;;;;;;;;;4392359;32;20108;-70
2022/02/05 01:57:11;;;;;;;17.08;2.47;;;;;;;;;;4390743;32;19938;-70
2022/02/05 01:59:43;;;;;;;9.75;2.35;;;;;;;;;;4388958;32;20057;-70
2022/02/05 02:05:01;;;;;;;12.20;2.83;;;;;;;;;;4390815;32;20087;-71
2022/02/05 02:12:50;;;;;;;;;;;;;;;;;;4392181;32;20022;-70
2022/02/05 02:15:29;;;;;;;14.75;2.75;;;;;;;;;;4389753;32;19945;-70
2022/02/05 02:20:57;;;;;;;16.58;2.53;;;;;;;;;;4391837;32;20019;-70
2022/02/05 02:26:23;;;;;;;8.57;2.40;;;;;;;;;;4391564;32;20133;-70
2022/02/05 02:28:56;;;;;;;11.45;2.65;;;;;;;;;;4392086;32;20466;-70
2022/02/05 02:31:26;;;;;;;13.68;2.60;;;;;;;;;;4390285;32;20015;-69
2022/02/05 02:33:55;;;;;;;22.98;3.50;;;;;;;;;;4388930;32;20093;-70
2022/02/05 02:38:52;;;;;;;12.18;2.60;;;;;;;;;;4390577;32;20092;-69
2022/02/05 02:41:26;;;;;;;11.75;3.08;;;;;;;;;;4390246;32;20395;-69
2022/02/05 02:43:52;;;;;;;14.10;3.40;;;;;;;;;;4388664;32;20105;-70
2022/02/05 02:46:17;;;;;;;;;;;;;;;;;;4390043;32;20521;-71
2022/02/05 02:48:45;;;;;;;14.78;2.62;;;;;;;;;;4391107;32;19938;-69
2022/02/05 02:59:10;;;;;;;16.05;2.28;;;;;;;;;;4390958;32;20038;-70
2022/02/05 03:01:41;;;;;;;21.10;3.45;;;;;;;;;;4405021;32;20023;-71
2022/02/05 03:04:06;;;;;;;17.23;3.15;;;;;;;;;;4404829;32;20087;-70
2022/02/05 03:06:32;;;;;;;;;;;;;;;;;;4406706;32;20409;-70
2022/02/05 03:08:57;;;;;;;18.37;2.45;;;;;;;;;;4405222;32;19948;-70
2022/02/05 03:11:23;;;;;;;;;;;;;;;;;;4406689;32;20404;-70
2022/02/05 03:13:48;;;;;;;13.10;2.72;;;;;;;;;;4405692;32;20419;-70
2022/02/05 03:16:25;;;;;;;;;;;;;;;;;;4390830;32;20022;-70
2022/02/05 03:21:22;;;;;;;12.52;2.50;;;;;;;;;;4391232;32;20022;-71
2022/02/05 03:23:47;;;;;;;;;;;;;;;;;;4390280;32;20022;-70
2022/02/05 03:26:12;;;;;;;7.14;2.18;;;;;;;;;;4391725;32;19945;-69
2022/02/05 03:28:37;;;;;;;;;;;;;;;;;;4389681;32;20085;-70
2022/02/05 03:31:03;;;;;;;14.90;2.80;;;;;;;;;;4388470;32;20016;-70
2022/02/05 03:33:28;;;;;;;;;;;;;;;;;;4390281;32;20154;-70
2022/02/05 03:35:53;;;;;;;12.30;2.52;;;;;;;;;;4391560;32;19935;-70
2022/02/05 03:38:18;;;;;;;;;;;;;;;;;;4390123;32;20046;-69
2022/02/05 03:40:43;;;;;;;16.75;2.70;;;;;;;;;;4390640;32;19995;-71
2022/02/05 03:43:08;;;;;;;;;;;;;;;;;;4391272;32;20023;-69
2022/02/05 03:45:33;;;;;;;13.26;2.98;;;;;;;;;;4389891;32;19938;-69
2022/02/05 03:47:59;;;;;;;;;;;;;;;;;;4390701;32;20046;-69
2022/02/05 03:50:24;;;;;;;14.73;2.58;;;;;;;;;;4389717;32;20335;-70
2022/02/05 03:52:49;;;;;;;;;;;;;;;;;;4390900;32;20106;-69
2022/02/05 03:55:14;;;;;;;15.82;2.95;;;;;;;;;;4390427;32;19977;-70
2022/02/05 03:57:39;;;;;;;;;;;;;;;;;;4389157;32;20118;-70
2022/02/05 04:00:07;;;;;;;17.87;3.87;;;;;;;;;;4390487;32;19972;-69
2022/02/05 04:02:33;;;;;;;19.25;2.80;;;;;;;;;;4392732;32;20137;-69
2022/02/05 04:04:58;;;;;;;;;;;;;;;;;;4392662;32;20055;-69
2022/02/05 04:07:25;;;;;;;19.00;3.47;;;;;;;;;;4391355;32;20023;-69
2022/02/05 04:09:57;;;;;;;18.45;2.50;;;;;;;;;;4390681;32;20027;-69
2022/02/05 04:17:54;;;;;;;19.05;3.83;;;;;;;;;;4377501;32;20084;-70
2022/02/05 04:20:19;;;;;;;;;;;;;;;;;;4394365;32;20332;-70
2022/02/05 04:22:44;;;;;;;17.35;5.60;;;;;;;;;;4392479;32;19937;-70
2022/02/05 04:25:10;;;;;;;;;;;;;;;;;;4392400;32;20131;-69
2022/02/05 04:27:35;;;;;;;13.07;2.80;;;;;;;;;;4393492;32;19946;-69
2022/02/05 04:30:00;;;;;;;;;;;;;;;;;;4392860;32;20045;-69
2022/02/05 04:32:25;;;;;;;19.73;2.97;;;;;;;;;;4393402;32;19951;-70
2022/02/05 04:34:50;;;;;;;;;;;;;;;;;;4391563;32;20023;-70
2022/02/05 04:37:17;;;;;;;11.73;2.55;;;;;;;;;;4390232;32;19949;-70
2022/02/05 04:39:49;;;;;;;14.68;3.08;;;;;;;;;;4391719;32;20018;-70
2022/02/05 04:42:22;;;;;;;12.75;2.90;;;;;;;;;;4392034;32;20022;-70
2022/02/05 04:47:54;;;;;;;26.75;4.68;;;;;;;;;;4380184;32;20065;-69
2022/02/05 04:56:13;;;;;;;9.90;2.80;;;;;;;;;;4392584;32;20022;-70
2022/02/05 05:06:25;;;;;;;14.82;3.40;;;;;;;;;;4392194;32;20049;-70
2022/02/05 05:09:10;;;;;;;19.73;3.40;;;;;;;;;;4392949;32;20027;-70
2022/02/05 05:12:14;;;;;;;5.82;2.35;;;;;;;;;;4391237;32;20046;-70
2022/02/05 05:20:03;;;;;;;10.15;2.83;;;;;;;;;;4392433;32;20060;-69
2022/02/05 05:22:28;;;;;;;;;;;;;;;;;;4390712;32;20113;-70
2022/02/05 05:24:53;;;;;;;11.98;3.17;;;;;;;;;;4392500;32;19933;-71
2022/02/05 05:27:18;;;;;;;;;;;;;;;;;;4392165;32;20126;-71
2022/02/05 05:29:44;;;;;;;21.45;3.20;;;;;;;;;;4391187;32;19985;-70
2022/02/05 05:32:09;;;;;;;;;;;;;;;;;;4392666;32;20493;-70
2022/02/05 05:34:34;;;;;;;12.05;2.53;;;;;;;;;;4390989;32;19949;-69
2022/02/05 05:37:01;;;;;;;;;;;;;;;;;;4391801;32;20391;-70
2022/02/05 05:39:26;;;;;;;18.42;3.08;;;;;;;;;;4389902;32;19977;-69
2022/02/05 05:41:52;;;;;;;;;;;;;;;;;;4392188;32;20345;-70
2022/02/05 05:47:17;;;;;;;10.93;3.45;;;;;;;;;;4392268;32;20175;-70
2022/02/05 05:52:16;;;;;;;15.73;3.10;;;;;;;;;;4391148;32;20064;-70
2022/02/05 05:54:41;;;;;;;;;;;;;;;;;;4390708;32;20080;-70
2022/02/05 05:57:06;;;;;;;21.12;3.37;;;;;;;;;;4389489;32;20332;-68
2022/02/05 05:59:31;;;;;;;14.80;2.85;;;;;;;;;;4390825;32;20052;-70
2022/02/05 06:01:56;;;;;;;;;;;;;;;;;;4390215;32;20055;-70
2022/02/05 06:04:22;;;;;;;14.70;2.83;;;;;;;;;;4390647;32;19941;-70
2022/02/05 06:06:47;;;;;;;;;;;;;;;;;;4392056;32;20187;-70
2022/02/05 06:09:12;;;;;;;12.63;2.22;;;;;;;;;;4390707;32;19934;-70
2022/02/05 06:11:37;;;;;;;;;;;;;;;;;;4390971;32;20023;-70
2022/02/05 06:14:02;;;;;;;12.24;3.04;;;;;;;;;;4388920;32;19956;-68
2022/02/05 06:16:31;;;;;;;;;;;;;;;;;;4392068;32;20149;-69
2022/02/05 06:18:57;;;;;;;14.35;2.80;;;;;;;;;;4389559;32;20341;-70
2022/02/05 06:21:22;;;;;;;;;;;;;;;;;;4389899;32;20023;-70
2022/02/05 06:23:47;;;;;;;16.80;2.53;;;;;;;;;;4390695;32;19949;-69
2022/02/05 06:26:12;;;;;;;;;;;;;;;;;;4392161;32;20045;-70
2022/02/05 06:28:38;;;;;;;13.27;2.50;;;;;;;;;;4391996;32;19956;-72
2022/02/05 06:31:03;;;;;;;;;;;;;;;;;;4392058;32;20408;-70
2022/02/05 06:33:28;;;;;;;20.55;2.97;;;;;;;;;;4390544;32;20353;-70
2022/02/05 06:35:53;;;;;;;;;;;;;;;;;;4389004;32;20027;-68
2022/02/05 06:38:18;;;;;;;13.35;3.30;;;;;;;;;;4391388;32;19952;-70
2022/02/05 06:40:43;;;;;;;;;;;;;;;;;;4393289;32;20023;-70
2022/02/05 06:43:09;;;;;;;26.48;2.90;;;;;;;;;;4393780;32;19934;-70
2022/02/05 06:45:34;;;;;;;;;;;;;;;;;;4388679;32;20018;-70
2022/02/05 06:47:59;;;;;;;16.05;2.83;;;;;;;;;;4390926;32;19976;-69
2022/02/05 06:50:26;;;;;;;;;;;;;;;;;;4392127;32;20061;-71
2022/02/05 06:52:51;;;;;;;13.43;2.95;;;;;;;;;;4393838;32;19941;-69
2022/02/05 06:55:16;;;;;;;;;;;;;;;;;;4390851;32;20089;-70
2022/02/05 06:57:41;;;;;;;11.80;2.90;;;;;;;;;;4391437;32;19956;-70
2022/02/05 07:00:06;;;;;;;;;;;;;;;;;;4392320;32;20070;-70
2022/02/05 07:02:32;;;;;;;18.58;2.90;;;;;;;;;;4390451;32;19937;-70
2022/02/05 07:04:57;;;;;;;;;;;;;;;;;;4389646;32;20452;-70
2022/02/05 07:07:22;;;;;;;10.98;2.42;;;;;;;;;;4396007;32;19965;-69
2022/02/05 07:09:47;;;;;;;;;;;;;;;;;;4396328;32;20150;-69
2022/02/05 07:12:13;;;;;;;18.12;3.95;;;;;;;;;;4391632;32;19942;-71
2022/02/05 07:14:47;;;;;;;;;;;;;;;;;;4391857;32;20173;-70
2022/02/05 07:17:23;;;;;;;16.45;3.60;;;;;;;;;;4395477;32;19949;-69
2022/02/05 07:20:04;;;;;;;10.45;2.58;;;;;;;;;;4398146;32;20099;-72
2022/02/05 07:22:35;;;;;;;16.05;3.80;;;;;;;;;;4395430;32;20015;-70
2022/02/05 07:30:28;;;;;;;16.30;3.10;;;;;;;;;;4397886;32;20451;-70
2022/02/05 07:32:53;;;;;;;;;;;;;;;;;;4396178;32;20019;-70
2022/02/05 07:35:18;;;;;;;20.42;3.78;;;;;;;;;;4400911;32;20007;-70
2022/02/05 07:37:44;;;;;;;;;;;;;;;;;;4400932;32;20053;-70
2022/02/05 07:40:09;;;;;;;14.80;3.25;;;;;;;;;;4400705;32;19942;-70
2022/02/05 07:42:34;;;;;;;;;;;;;;;;;;4397919;32;20363;-70
2022/02/05 07:44:59;;;;;;;14.13;3.08;;;;;;;;;;4398111;32;19941;-70
2022/02/05 07:47:27;;;;;;;;;;;;;;;;;;4402425;32;20171;-70
2022/02/05 07:49:52;;;;;;;20.55;3.28;;;;;;;;;;4397805;32;19941;-70
2022/02/05 07:52:17;;;;;;;;;;;;;;;;;;4398369;32;20081;-69
2022/02/05 07:54:42;;;;;;;16.88;3.52;;;;;;;;;;4397935;32;19942;-69
2022/02/05 07:57:08;;;;;;;;;;;;;;;;;;4395828;32;20145;-70
2022/02/05 07:59:33;;;;;;;16.54;2.84;;;;;;;;;;4392115;32;19968;-70
2022/02/05 08:01:58;;;;;;;;;;;;;;;;;;4392269;32;20054;-70
2022/02/05 08:04:23;;;;;;;16.00;2.85;;;;;;;;;;4393344;32;19938;-70
2022/02/05 08:06:50;;;;;;;;;;;;;;;;;;4398416;32;20123;-71
2022/02/05 08:09:26;;;;;;;14.57;3.65;;;;;;;;;;4401932;32;19940;-70
2022/02/05 08:11:57;;;;;;;16.83;3.08;;;;;;;;;;4407922;32;20014;-71
2022/02/05 08:14:23;;;;;;;19.62;4.45;;;;;;;;;;4407466;32;20067;-71
2022/02/05 08:16:53;;;;;;;;;;;;;;;;;;4407594;32;20453;-70
2022/02/05 08:19:18;;;;;;;15.75;3.50;;;;;;;;;;4408416;32;20029;-72
2022/02/05 08:21:43;;;;;;;;;;;;;;;;;;4408333;32;20076;-70
2022/02/05 08:24:09;;;;;;;20.32;4.74;;;;;;;;;;4408523;32;19972;-69
2022/02/05 08:26:35;;;;;;;;;;;;;;;;;;4408585;32;20026;-71
2022/02/05 08:29:01;;;;;;;22.83;3.58;;;;;;;;;;4393730;32;19938;-69
2022/02/05 08:31:26;;;;;;;;;;;;;;;;;;4390273;32;20042;-71
2022/02/05 08:33:52;;;;;;;15.05;2.92;;;;;;;;;;4405116;32;20228;-70
2022/02/05 08:36:17;;;;;;;;;;;;;;;;;;4408195;32;20022;-69
2022/02/05 08:38:43;;;;;;;16.36;3.62;;;;;;;;;;4408558;32;19938;-70
2022/02/05 08:41:08;;;;;;;;;;;;;;;;;;4406387;32;20076;-69
2022/02/05 08:43:33;;;;;;;15.48;2.78;;;;;;;;;;4392789;32;19945;-70
2022/02/05 08:45:58;;;;;;;;;;;;;;;;;;4392450;32;20651;-71
2022/02/05 08:48:23;;;;;;;20.17;4.05;;;;;;;;;;4405377;32;20052;-70
2022/02/05 08:50:48;;;;;;;;;;;;;;;;;;4394963;32;20098;-71
2022/02/05 08:53:19;;;;;;;16.15;2.80;;;;;;;;;;4394345;32;20341;-72
2022/02/05 08:55:44;;;;;;;20.62;4.05;;;;;;;;;;4391980;32;20042;-71
2022/02/05 08:58:09;;;;;;;;;;;;;;;;;;4391919;32;20350;-71
2022/02/05 09:00:43;;;;;;;17.02;4.37;;;;;;;;;;4409487;32;19934;-71
2022/02/05 09:03:13;;;;;;;16.58;3.40;;;;;;;;;;4423272;32;20509;-69
2022/02/05 09:05:47;;;;;;;14.82;2.45;;;;;;;;;;4422142;32;20052;-70
2022/02/05 09:08:24;;;;;;;16.50;3.40;;;;;;;;;;4422022;32;20022;-70
2022/02/05 09:11:16;;;;;;;;;;;;;;;;;;4406246;32;20148;-69
2022/02/05 09:13:57;;;;;;;10.73;2.97;;;;;;;;;;4406146;32;19930;-70
2022/02/05 09:16:22;;;;;;;9.93;2.42;;;;;;;;;;4406578;32;20050;-71
2022/02/05 09:18:47;;;;;;;;;;;;;;;;;;4408366;32;20152;-71
2022/02/05 09:21:13;;;;;;;19.44;2.90;;;;;;;;;;4406104;32;19952;-70
2022/02/05 09:23:39;;;;;;;;;;;;;;;;;;4407670;32;20135;-68
2022/02/05 09:26:04;;;;;;;15.48;3.28;;;;;;;;;;4403919;32;20357;-70
2022/02/05 09:28:29;;;;;;;;;;;;;;;;;;4410645;32;20427;-71
2022/02/05 09:33:36;;;;;;;16.35;2.72;;;;;;;;;;4412121;32;20073;-69
2022/02/05 09:36:01;;;;;;;14.57;4.43;;;;;;;;;;4406581;32;20023;-72
2022/02/05 09:38:26;;;;;;;;;;;;;;;;;;4400824;32;20490;-71
2022/02/05 09:40:52;;;;;;;22.02;3.42;;;;;;;;;;4401566;32;19941;-71
2022/02/05 09:43:17;;;;;;;;;;;;;;;;;;4398052;32;20244;-71
2022/02/05 09:45:42;;;;;;;15.38;2.87;;;;;;;;;;4389891;32;19949;-70
2022/02/05 09:48:07;;;;;;;;;;;;;;;;;;4393796;32;20027;-71
2022/02/05 09:50:36;;;;;;;17.42;3.12;;;;;;;;;;4405345;32;19941;-71
2022/02/05 09:53:13;;;;;;;18.40;2.62;;;;;;;;;;4403574;32;20183;-71
2022/02/05 09:55:38;;;;;;;11.50;2.60;;;;;;;;;;4388513;32;20462;-74
2022/02/05 09:58:03;;;;;;;;;;;;;;;;;;4392006;32;20035;-72
2022/02/05 10:00:28;;;;;;;12.80;3.67;;;;;;;;;;4392095;32;20091;-74
2022/02/05 10:02:59;;;;;;;;;;;;;;;;;;4397880;32;20173;-73
2022/02/05 10:05:31;;;;;;;11.43;2.45;;;;;;;;;;4396986;32;20315;-74
2022/02/05 10:07:56;;;;;;;12.50;3.00;;;;;;;;;;4394885;32;20041;-73
2022/02/05 10:10:21;;;;;;;;;;;;;;;;;;4397576;32;20031;-73
2022/02/05 10:13:05;;;;;;;10.80;2.45;;;;;;;;;;4399731;32;19948;-72
2022/02/05 10:15:32;;;;;;;19.70;2.92;;;;;;;;;;4397860;32;20365;-72
2022/02/05 10:17:57;;;;;;;16.75;3.70;;;;;;;;;;4393095;32;20105;-73
2022/02/05 10:20:22;;;;;;;;;;;;;;;;;;4402921;32;20103;-81
2022/02/05 10:22:47;;;;;;;11.12;2.97;;;;;;;;;;4402270;32;19972;-76
2022/02/05 10:25:13;;;;;;;;;;;;;;;;;;4402263;32;20084;-76
2022/02/05 10:27:39;;;;;;;16.27;3.12;;;;;;;;;;4396365;32;19938;-76
2022/02/05 10:30:09;;;;;;;22.40;3.78;;;;;;;;;;4392111;32;20514;-76
2022/02/05 10:32:39;;;;;;;16.42;2.70;;;;;;;;;;4390817;32;20098;-75
2022/02/05 10:35:19;;;;;;;18.27;3.53;;;;;;;;;;4404797;32;20098;-71
2022/02/05 10:37:54;;;;;;;14.65;3.78;;;;;;;;;;4392841;32;20037;-73
2022/02/05 10:40:29;;;;;;;12.43;2.65;;;;;;;;;;4388004;32;20089;-73
2022/02/05 10:43:02;;;;;;;18.62;2.95;;;;;;;;;;4387864;32;20006;-72
2022/02/05 10:45:40;;;;;;;19.00;3.17;;;;;;;;;;4390850;32;20026;-73
2022/02/05 10:48:06;;;;;;;13.95;2.72;;;;;;;;;;4397566;32;20409;-72
2022/02/05 10:50:31;;;;;;;;;;;;;;;;;;4400043;32;20023;-72
2022/02/05 10:53:03;;;;;;;12.15;3.35;;;;;;;;;;4394420;32;19937;-72
2022/02/05 10:55:49;;;;;;;15.18;2.78;;;;;;;;;;4404128;32;20076;-71
2022/02/05 11:05:55;;;;;;;12.75;2.90;;;;;;;;;;4389317;32;19972;-71
2022/02/05 11:08:22;;;;;;;;;;;;;;;;;;4391764;32;20360;-72
2022/02/05 11:13:24;;;;;;;23.05;3.15;;;;;;;;;;4392771;32;20023;-72
2022/02/05 11:20:58;;;;;;;18.33;2.92;;;;;;;;;;4393308;32;20051;-71
2022/02/05 11:23:23;;;;;;;;;;;;;;;;;;4402200;32;20034;-71
2022/02/05 11:25:49;;;;;;;14.07;2.62;;;;;;;;;;4409325;32;20296;-70
2022/02/05 11:28:14;;;;;;;;;;;;;;;;;;4404129;32;20022;-71
2022/02/05 11:30:42;;;;;;;20.33;3.35;;;;;;;;;;4404567;32;20020;-70
2022/02/05 11:33:25;;;;;;;27.05;4.85;;;;;;;;;;4403747;32;20022;-71
2022/02/05 11:38:29;;;;;;;18.00;3.35;;;;;;;;;;4400073;32;20157;-71
2022/02/05 11:40:55;;;;;;;11.52;3.05;;;;;;;;;;4401070;32;20022;-70
2022/02/05 11:43:20;;;;;;;15.48;3.22;;;;;;;;;;4401653;32;20075;-70
2022/02/05 11:45:45;;;;;;;;;;;;;;;;;;4403689;32;20101;-71
2022/02/05 11:48:29;;;;;;;15.55;3.15;;;;;;;;;;4396913;32;20053;-70
2022/02/05 11:51:13;;;;;;;15.32;2.83;;;;;;;;;;4396194;32;20244;-71
2022/02/05 11:54:00;;;;;;;14.73;3.35;;;;;;;;;;4403271;32;20240;-71
2022/02/05 11:57:07;;;;;;;16.98;3.28;;;;;;;;;;4406667;32;20038;-69
2022/02/05 11:59:51;;;;;;;14.23;3.90;;;;;;;;;;4408116;32;20018;-68
2022/02/05 12:02:20;;;;;;;19.35;3.42;;;;;;;;;;4404303;32;20026;-69
2022/02/05 12:04:46;;;;;;;19.35;3.45;;;;;;;;;;4397092;32;20056;-69
2022/02/05 12:07:12;;;;;;;;;;;;;;;;;;4401099;32;20034;-68
2022/02/05 12:09:41;;;;;;;21.80;3.87;;;;;;;;;;4395453;32;19934;-70
2022/02/05 12:12:22;;;;;;;21.08;3.40;;;;;;;;;;4392962;32;20399;-69
2022/02/05 12:15:05;;;;;;;17.12;3.55;;;;;;;;;;4392933;32;20306;-70
2022/02/05 12:17:52;;;;;;;18.87;4.40;;;;;;;;;;4391704;32;20026;-68
2022/02/05 12:20:23;;;;;;;16.60;2.97;;;;;;;;;;4390653;32;20026;-69
2022/02/05 12:23:24;;;;;;;21.60;2.97;;;;;;;;;;4394458;32;20073;-69
2022/02/05 12:25:59;;;;;;;25.80;3.97;;;;;;;;;;4393116;32;20031;-69
2022/02/05 12:28:35;;;;;;;16.00;4.75;;;;;;;;;;4391074;32;20043;-68
2022/02/05 12:31:01;;;;;;;17.50;3.22;;;;;;;;;;4391992;32;20109;-69
2022/02/05 12:33:41;;;;;;;12.02;2.67;;;;;;;;;;4390527;32;20023;-69
2022/02/05 12:36:06;;;;;;;13.93;3.47;;;;;;;;;;4393860;32;20412;-70
2022/02/05 12:38:31;;;;;;;;;;;;;;;;;;4406992;32;20053;-69
2022/02/05 12:40:56;;;;;;;11.52;2.95;;;;;;;;;;4405943;32;19975;-69
2022/02/05 12:43:23;;;;;;;;;;;;;;;;;;4408342;32;20038;-69
2022/02/05 12:46:06;;;;;;;13.07;3.00;;;;;;;;;;4405630;32;20315;-69
2022/02/05 12:48:31;;;;;;;9.75;2.37;;;;;;;;;;4400456;32;20041;-69
2022/02/05 12:50:57;;;;;;;;;;;;;;;;;;4397130;32;20023;-70
2022/02/05 12:53:28;;;;;;;15.68;2.72;;;;;;;;;;4393057;32;19997;-70
2022/02/05 12:55:53;;;;;;;16.45;2.90;;;;;;;;;;4392092;32;20080;-69
2022/02/05 12:58:19;;;;;;;;;;;;;;;;;;4395438;32;20081;-69
2022/02/05 13:00:45;;;;;;;10.52;2.95;;;;;;;;;;4406413;32;19990;-68
2022/02/05 13:03:10;;;;;;;;;;;;;;;;;;4407025;32;20384;-69
2022/02/05 13:05:35;;;;;;;15.05;2.85;;;;;;;;;;4399267;32;19937;-69
2022/02/05 13:08:00;;;;;;;16.33;3.03;;;;;;;;;;4398990;32;20048;-68
2022/02/05 13:10:26;;;;;;;;;;;;;;;;;;4399249;32;20045;-68
2022/02/05 13:12:56;;;;;;;14.50;2.83;;;;;;;;;;4396415;32;19980;-69
2022/02/05 13:15:26;;;;;;;12.50;2.60;;;;;;;;;;4391871;32;20411;-68
2022/02/05 13:26:09;;;;;;;14.30;3.65;;;;;;;;;;4397071;32;20451;-68
2022/02/05 13:34:02;;;;;;;13.75;3.22;;;;;;;;;;4394079;32;20057;-68
2022/02/05 13:36:39;;;;;;;26.40;4.15;;;;;;;;;;4391267;32;20049;-68
2022/02/05 13:41:33;;;;;;;12.57;3.00;;;;;;;;;;4391572;32;19961;-68
2022/02/05 13:43:59;;;;;;;12.73;2.83;;;;;;;;;;4390362;32;20022;-68
2022/02/05 13:46:24;;;;;;;;;;;;;;;;;;4390655;32;20367;-69
2022/02/05 13:48:49;;;;;;;11.93;3.20;;;;;;;;;;4390817;32;20233;-68
2022/02/05 13:51:18;;;;;;;;;;;;;;;;;;4399662;32;20038;-66
2022/02/05 13:53:57;;;;;;;15.32;3.75;;;;;;;;;;4392275;32;20001;-69
2022/02/05 13:56:22;;;;;;;17.60;2.75;;;;;;;;;;4388568;32;20030;-68
2022/02/05 13:58:47;;;;;;;;;;;;;;;;;;4390039;32;20136;-67
2022/02/05 14:01:26;;;;;;;12.85;3.20;;;;;;;;;;4389709;32;20236;-70
2022/02/05 14:03:51;;;;;;;15.25;3.28;;;;;;;;;;4388800;32;20046;-68
2022/02/05 14:06:16;;;;;;;;;;;;;;;;;;4391535;32;20019;-69
2022/02/05 14:08:43;;;;;;;17.45;3.10;;;;;;;;;;4391110;32;19968;-68
2022/02/05 14:11:09;;;;;;;19.80;4.22;;;;;;;;;;4391937;32;20072;-68
2022/02/05 14:13:34;;;;;;;;;;;;;;;;;;4391642;32;20019;-67
2022/02/05 14:16:01;;;;;;;16.27;3.40;;;;;;;;;;4391406;32;19941;-68
2022/02/05 14:18:27;;;;;;;11.52;3.25;;;;;;;;;;4390785;32;20341;-68
2022/02/05 14:20:56;;;;;;;16.02;2.47;;;;;;;;;;4390345;32;20018;-69
2022/02/05 14:23:23;;;;;;;19.73;3.45;;;;;;;;;;4389401;32;20023;-68
2022/02/05 14:25:49;;;;;;;15.38;3.92;;;;;;;;;;4390642;32;20019;-68
2022/02/05 14:28:17;;;;;;;;;;;;;;;;;;4389753;32;20057;-68
2022/02/05 14:30:55;;;;;;;19.80;3.22;;;;;;;;;;4390205;32;19954;-68
2022/02/05 14:33:22;;;;;;;19.42;3.08;;;;;;;;;;4391924;32;20411;-68
2022/02/05 14:36:13;;;;;;;15.95;4.32;;;;;;;;;;4389970;32;20022;-69
2022/02/05 14:41:16;;;;;;;13.10;3.22;;;;;;;;;;4391211;32;20040;-68
2022/02/05 14:43:41;;;;;;;19.45;4.15;;;;;;;;;;4389144;32;20019;-68
2022/02/05 14:46:06;;;;;;;;;;;;;;;;;;4389184;32;20111;-68
2022/02/05 14:48:31;;;;;;;20.68;3.36;;;;;;;;;;4390476;32;19952;-67
2022/02/05 14:50:59;;;;;;;;;;;;;;;;;;4389720;32;20057;-67
2022/02/05 14:53:24;;;;;;;14.55;3.62;;;;;;;;;;4390344;32;19934;-67
2022/02/05 14:55:49;;;;;;;;;;;;;;;;;;4390388;32;20073;-68
2022/02/05 14:58:15;;;;;;;21.37;4.03;;;;;;;;;;4388814;32;19948;-68
2022/02/05 15:00:40;;;;;;;;;;;;;;;;;;4397428;32;20389;-67
2022/02/05 15:03:07;;;;;;;13.48;2.60;;;;;;;;;;4402993;32;19977;-69
2022/02/05 15:05:34;;;;;;;11.98;3.33;;;;;;;;;;4404523;32;20157;-68
2022/02/05 15:08:00;;;;;;;21.75;4.30;;;;;;;;;;4406067;32;20120;-67
2022/02/05 15:10:25;;;;;;;;;;;;;;;;;;4404686;32;20358;-68
2022/02/05 15:12:50;;;;;;;22.95;4.47;;;;;;;;;;4403028;32;20024;-67
2022/02/05 15:15:19;;;;;;;;;;;;;;;;;;4405507;32;20573;-68
2022/02/05 15:17:45;;;;;;;15.75;2.95;;;;;;;;;;4404753;32;19967;-68
2022/02/05 15:20:10;;;;;;;;;;;;;;;;;;4404985;32;20408;-67
2022/02/05 15:22:35;;;;;;;15.75;3.12;;;;;;;;;;4403909;32;19975;-67
2022/02/05 15:25:01;;;;;;;12.88;2.87;;;;;;;;;;4403866;32;20042;-68
2022/02/05 15:27:26;;;;;;;;;;;;;;;;;;4403820;32;20054;-68
2022/02/05 15:29:51;;;;;;;15.80;3.03;;;;;;;;;;4404613;32;19941;-69
2022/02/05 15:32:16;;;;;;;;;;;;;;;;;;4390112;32;20134;-67
2022/02/05 15:34:42;;;;;;;14.25;3.90;;;;;;;;;;4390450;32;19933;-67
2022/02/05 15:37:14;;;;;;;;;;;;;;;;;;4389364;32;20446;-67
2022/02/05 15:39:53;;;;;;;18.02;3.37;;;;;;;;;;4389060;32;20006;-67
2022/02/05 15:45:02;;;;;;;14.60;2.47;;;;;;;;;;4392254;32;20145;-68
2022/02/05 15:47:28;;;;;;;;;;;;;;;;;;4406275;32;20416;-67
2022/02/05 15:49:53;;;;;;;16.73;3.12;;;;;;;;;;4405402;32;19952;-69
2022/02/05 15:52:18;;;;;;;;;;;;;;;;;;4403120;32;20252;-68
2022/02/05 15:54:43;;;;;;;24.52;3.50;;;;;;;;;;4407129;32;19937;-68
2022/02/05 15:59:52;;;;;;;15.38;2.62;;;;;;;;;;4406964;32;19980;-69
2022/02/05 16:02:18;;;;;;;26.30;2.78;;;;;;;;;;4406928;32;20004;-66
2022/02/05 16:04:43;;;;;;;;;;;;;;;;;;4408603;32;20083;-67
2022/02/05 16:07:08;;;;;;;13.07;3.00;;;;;;;;;;4408101;32;19937;-68
2022/02/05 16:09:33;;;;;;;;;;;;;;;;;;4406812;32;20551;-68
2022/02/05 16:11:58;;;;;;;7.38;2.20;;;;;;;;;;4406735;32;19937;-68
2022/02/05 16:14:23;;;;;;;;;;;;;;;;;;4404776;32;20221;-69
2022/02/05 16:16:49;;;;;;;11.65;3.17;;;;;;;;;;4391792;32;19944;-68
2022/02/05 16:19:14;;;;;;;;;;;;;;;;;;4392797;32;20049;-68
2022/02/05 16:21:39;;;;;;;18.10;3.37;;;;;;;;;;4407562;32;20018;-67
2022/02/05 16:24:04;;;;;;;;;;;;;;;;;;4407459;32;20115;-67
2022/02/05 16:26:29;;;;;;;16.30;2.78;;;;;;;;;;4405942;32;19969;-68
2022/02/05 16:28:54;;;;;;;;;;;;;;;;;;4408041;32;20027;-68
2022/02/05 16:31:20;;;;;;;22.35;4.68;;;;;;;;;;4406909;32;20032;-68
2022/02/05 16:33:45;;;;;;;;;;;;;;;;;;4406775;32;20409;-67
2022/02/05 16:36:13;;;;;;;16.60;2.87;;;;;;;;;;4407719;32;20001;-68
2022/02/05 16:38:42;;;;;;;15.65;3.12;;;;;;;;;;4405164;32;20045;-69
2022/02/05 16:41:07;;;;;;;15.02;3.60;;;;;;;;;;4409157;32;20069;-68
2022/02/05 16:43:32;;;;;;;;;;;;;;;;;;4409229;32;20389;-68
2022/02/05 16:45:57;;;;;;;18.23;3.58;;;;;;;;;;4407740;32;19995;-67
2022/02/05 16:48:22;;;;;;;;;;;;;;;;;;4407418;32;20138;-68
2022/02/05 16:50:47;;;;;;;22.65;3.28;;;;;;;;;;4408044;32;19945;-67
2022/02/05 16:53:13;;;;;;;;;;;;;;;;;;4402675;32;20294;-66
2022/02/05 16:55:39;;;;;;;19.08;3.37;;;;;;;;;;4395223;32;19949;-67
2022/02/05 16:58:04;;;;;;;;;;;;;;;;;;4406386;32;20083;-68
2022/02/05 17:00:33;;;;;;;18.23;3.40;;;;;;;;;;4394086;32;20101;-68
2022/02/05 17:02:58;;;;;;;10.70;3.30;;;;;;;;;;4392045;32;20536;-68
2022/02/05 17:05:26;;;;;;;;;;;;;;;;;;4390916;32;20045;-66
2022/02/05 17:07:57;;;;;;;9.88;2.50;;;;;;;;;;4391314;32;20312;-66
2022/02/05 17:10:23;;;;;;;13.82;3.17;;;;;;;;;;4392737;32;20385;-68
2022/02/05 17:12:48;;;;;;;;;;;;;;;;;;4391778;32;20118;-68
2022/02/05 17:15:13;;;;;;;15.45;2.83;;;;;;;;;;4392308;32;20007;-68
2022/02/05 17:17:40;;;;;;;;;;;;;;;;;;4389770;32;20073;-67
2022/02/05 17:20:06;;;;;;;12.20;3.40;;;;;;;;;;4391114;32;19938;-69
2022/02/05 17:22:31;;;;;;;24.58;4.75;;;;;;;;;;4391913;32;20076;-68
2022/02/05 17:24:57;;;;;;;;;;;;;;;;;;4391264;32;20371;-67
2022/02/05 17:27:23;;;;;;;14.87;3.65;;;;;;;;;;4406152;32;19941;-68
2022/02/05 17:29:48;;;;;;;;;;;;;;;;;;4407007;32;20317;-68
2022/02/05 17:32:15;;;;;;;21.73;4.07;;;;;;;;;;4407608;32;19967;-67
2022/02/05 17:34:45;;;;;;;21.83;4.80;;;;;;;;;;4405688;32;20057;-67
2022/02/05 17:37:10;;;;;;;11.30;2.70;;;;;;;;;;4405532;32;20034;-68
2022/02/05 17:39:37;;;;;;;;;;;;;;;;;;4407676;32;20022;-68
2022/02/05 17:42:02;;;;;;;16.02;3.72;;;;;;;;;;4405910;32;19945;-69
2022/02/05 17:44:27;;;;;;;;;;;;;;;;;;4405467;32;20049;-68
2022/02/05 17:46:53;;;;;;;10.20;2.62;;;;;;;;;;4405861;32;19989;-68
2022/02/05 17:49:18;;;;;;;;;;;;;;;;;;4405769;32;20056;-68
2022/02/05 17:51:43;;;;;;;16.40;3.12;;;;;;;;;;4405836;32;19943;-67
2022/02/05 17:54:08;;;;;;;;;;;;;;;;;;4403204;32;20550;-68
2022/02/05 17:56:41;;;;;;;21.98;3.90;;;;;;;;;;4403950;32;20333;-68
2022/02/05 17:59:08;;;;;;;17.20;5.35;;;;;;;;;;4392126;32;20026;-67
2022/02/05 18:01:33;;;;;;;19.50;5.32;;;;;;;;;;4391758;32;20030;-67
2022/02/05 18:03:58;;;;;;;;;;;;;;;;;;4391162;32;20053;-66